createdAt,value
2023-02-22T00:02:21.459Z,79.9
2023-02-22T00:08:30.044Z,79.9
2023-02-22T00:14:23.344Z,79.6
2023-02-22T00:20:19.936Z,79.6
2023-02-22T00:26:29.680Z,79.4
2023-02-22T00:32:17.634Z,79.9
2023-02-22T00:38:20.013Z,81
2023-02-22T00:44:13.737Z,81
2023-02-22T00:50:32.243Z,80.9
2023-02-22T00:56:28.607Z,80.4
2023-02-22T01:02:30.875Z,80.2
2023-02-22T01:08:32.208Z,79.6
2023-02-22T01:14:19.321Z,79.5
2023-02-22T01:20:19.570Z,79.5
2023-02-22T01:26:34.566Z,79.7
2023-02-22T01:32:22.442Z,79.9
2023-02-22T01:38:16.182Z,79.9
2023-02-22T01:44:11.286Z,80
2023-02-22T01:50:17.234Z,80
2023-02-22T01:56:15.586Z,79.8
2023-02-22T02:02:13.060Z,79.9
2023-02-22T02:08:10.620Z,79.5
2023-02-22T02:14:16.386Z,79.3
2023-02-22T02:20:14.078Z,79.2
2023-02-22T02:26:07.523Z,78.9
2023-02-22T02:32:07.225Z,78.4
2023-02-22T02:38:16.161Z,78.1
2023-02-22T02:44:09.316Z,77.8
2023-02-22T02:50:16.670Z,77.8
2023-02-22T02:56:14.355Z,77.8
2023-02-22T03:02:14.242Z,77.5
2023-02-22T03:08:15.901Z,77.4
2023-02-22T03:14:10.370Z,77.2
2023-02-22T03:20:24.673Z,77.2
2023-02-22T03:32:07.195Z,77.2
2023-02-22T03:38:23.901Z,76.7
2023-02-22T03:44:13.477Z,76.3
2023-02-22T03:50:11.698Z,76.3
2023-02-22T03:56:15.660Z,76.4
2023-02-22T04:02:18.050Z,76.5
2023-02-22T04:08:16.579Z,77.1
2023-02-22T04:14:13.150Z,77.9
2023-02-22T04:20:15.440Z,77.8
2023-02-22T04:26:22.237Z,77.7
2023-02-22T04:32:26.427Z,77.4
2023-02-22T04:38:34.753Z,77.4
2023-02-22T04:44:26.365Z,77.4
2023-02-22T04:50:28.022Z,77.4
2023-02-22T04:56:21.172Z,77.2
2023-02-22T05:02:36.351Z,77.1
2023-02-22T05:08:22.323Z,77.2
2023-02-22T05:14:22.574Z,77.1
2023-02-22T05:20:42.413Z,76.9
2023-02-22T05:26:35.178Z,76.9
2023-02-22T05:32:23.780Z,77
2023-02-22T05:38:32.193Z,77
2023-02-22T05:44:37.222Z,77
2023-02-22T05:50:22.479Z,77
2023-02-22T05:56:35.019Z,76.9
2023-02-22T06:02:23.733Z,77.4
2023-02-22T06:08:34.174Z,77.5
2023-02-22T06:14:17.412Z,77.3
2023-02-22T06:20:27.925Z,77.4
2023-02-22T06:26:09.554Z,77.3
2023-02-22T06:32:22.086Z,77.3
2023-02-22T06:38:14.792Z,76.9
2023-02-22T06:44:29.889Z,77.2
2023-02-22T06:50:35.516Z,77.2
2023-02-22T06:56:19.677Z,77.2
2023-02-22T07:02:20.883Z,77
2023-02-22T07:08:25.581Z,77.2
2023-02-22T07:14:11.805Z,77.1
2023-02-22T07:20:27.607Z,77.3
2023-02-22T07:26:20.165Z,77.3
2023-02-22T07:32:07.641Z,77.1
2023-02-22T07:38:28.246Z,77
2023-02-22T07:44:11.783Z,76.8
2023-02-22T07:50:30.882Z,76.7
2023-02-22T07:59:17.356Z,76.7
2023-02-22T15:29:05.785Z,76.7
2023-02-22T15:35:08.961Z,54.5
